Whitney, Mississippi
Current Conditions -  °F | °C
As of 1:15 AM on Friday 31 Oct 2014 (Local Time) from KRNV Reporting Station
Scattered Clouds Scattered Clouds  
Wind Chill: 55°   Ceiling: Unl
Heat Index: 55°   Visibility: 10mi
Dew Point: 51°   Wind: 5mph
Humidity: 88%   Direction: 210°SSW
Pressure: 30.01"   Gusts: NA
Location:  33.8731°N, 90.5512°W
Report Text: KRNV 310615Z AUTO 21004KT 10SM SCT070 13/11 A3001 RMK AO2 T01250105
Loading
Personal Weather Stations






























Interactive Weather Map New forecast layout! Learn more

10-Day Weather Forecast

Advertisements
Track Severe Weather on mobile